createdAt,value
2018-06-20T00:00:18.319Z,81.35
2018-06-20T00:00:44.483Z,81.41
2018-06-20T00:01:10.626Z,81.41
2018-06-20T00:01:36.774Z,81.35
2018-06-20T00:02:02.937Z,81.22
2018-06-20T00:02:29.082Z,81.35
2018-06-20T00:02:55.218Z,81.35
2018-06-20T00:03:21.356Z,81.45
2018-06-20T00:03:47.516Z,81.16
2018-06-20T00:04:13.680Z,81.35
2018-06-20T00:04:39.847Z,81.35
2018-06-20T00:05:05.988Z,81.26
2018-06-20T00:05:32.124Z,81.16
2018-06-20T00:05:58.265Z,81.65
2018-06-20T00:06:24.408Z,81.26
2018-06-20T00:06:50.551Z,81.26
2018-06-20T00:07:16.765Z,81.35
2018-06-20T00:07:42.855Z,81.32
2018-06-20T00:08:08.997Z,81.16
2018-06-20T00:08:35.164Z,81.55
2018-06-20T00:09:01.328Z,81.32
2018-06-20T00:09:27.468Z,81.22
2018-06-20T00:09:53.606Z,81.32
2018-06-20T00:10:19.749Z,81.22
2018-06-20T00:10:45.888Z,81.9
2018-06-20T00:11:12.061Z,81.12
2018-06-20T00:11:38.194Z,81.22
2018-06-20T00:12:04.376Z,81.32
2018-06-20T00:12:30.517Z,81.8
2018-06-20T00:12:56.652Z,81.8
2018-06-20T00:13:22.823Z,81.7
2018-06-20T00:13:48.984Z,81.8
2018-06-20T00:14:15.129Z,82.09
2018-06-20T00:14:41.273Z,81.99
2018-06-20T00:15:07.451Z,81.9
2018-06-20T00:15:33.585Z,81.8
2018-06-20T00:15:59.760Z,82.76
2018-06-20T00:16:25.907Z,82.76
2018-06-20T00:16:52.044Z,82.86
2018-06-20T00:17:18.182Z,82.67
2018-06-20T00:17:44.318Z,82.57
2018-06-20T00:18:10.462Z,82.67
2018-06-20T00:18:36.601Z,82.38
2018-06-20T00:19:02.751Z,82.28
2018-06-20T00:19:28.917Z,82.76
2018-06-20T00:19:55.109Z,82.67
2018-06-20T00:20:21.218Z,82.86
2018-06-20T00:20:47.355Z,83.05
2018-06-20T00:21:13.497Z,82.96
2018-06-20T00:21:39.645Z,82.76
2018-06-20T00:22:05.784Z,82.96
2018-06-20T00:22:31.931Z,82.86
2018-06-20T00:22:58.070Z,82.86
2018-06-20T00:23:24.242Z,82.67
2018-06-20T00:23:50.380Z,82.48
2018-06-20T00:24:16.520Z,82.48
2018-06-20T00:24:42.662Z,82.67
2018-06-20T00:25:08.830Z,82.67
2018-06-20T00:25:34.970Z,82.67
2018-06-20T00:26:01.111Z,82.86
2018-06-20T00:26:27.273Z,82.38
2018-06-20T00:26:53.407Z,82.48
2018-06-20T00:27:19.551Z,82.38
2018-06-20T00:27:45.705Z,82.48
2018-06-20T00:28:11.849Z,82.86
2018-06-20T00:28:37.988Z,82.86
2018-06-20T00:29:04.135Z,82.67
2018-06-20T00:29:30.299Z,82.67
2018-06-20T00:29:56.438Z,82.67
2018-06-20T00:30:22.582Z,82.67
2018-06-20T00:30:48.746Z,82.28
2018-06-20T00:31:14.918Z,82.48
2018-06-20T00:31:41.061Z,82.48
2018-06-20T00:32:07.201Z,82.57
2018-06-20T00:32:33.332Z,82.67
2018-06-20T00:32:59.473Z,82.48
2018-06-20T00:33:25.615Z,82.48
2018-06-20T00:33:51.752Z,82.38
2018-06-20T00:34:17.891Z,82.67
2018-06-20T00:34:44.025Z,82.86
2018-06-20T00:35:10.168Z,82.96
2018-06-20T00:35:36.363Z,83.05
2018-06-20T00:36:02.450Z,83.05
2018-06-20T00:36:28.585Z,83.53
2018-06-20T00:36:54.756Z,83.53
2018-06-20T00:37:20.896Z,83.05
2018-06-20T00:37:47.061Z,83.44
2018-06-20T00:38:13.208Z,83.53
2018-06-20T00:38:39.348Z,83.44
2018-06-20T00:39:05.514Z,82.86
2018-06-20T00:39:31.651Z,83.15
2018-06-20T00:39:57.788Z,83.34
2018-06-20T00:40:23.925Z,83.53
2018-06-20T00:40:50.072Z,82.96
2018-06-20T00:41:16.213Z,82.96
2018-06-20T00:41:42.382Z,82.76
2018-06-20T00:42:08.540Z,82.86
2018-06-20T00:42:34.711Z,82.76
2018-06-20T00:43:00.897Z,82.57
2018-06-20T00:43:27.060Z,82.76
2018-06-20T00:43:53.196Z,82.67
2018-06-20T00:44:19.373Z,82.48
2018-06-20T00:44:45.528Z,82.67
2018-06-20T00:45:11.670Z,82.57
2018-06-20T00:45:37.811Z,82.76
2018-06-20T00:46:03.956Z,82.96
2018-06-20T00:46:30.090Z,82.57
2018-06-20T00:46:56.253Z,82.57
2018-06-20T00:47:22.397Z,82.57
2018-06-20T00:47:48.559Z,82.76
2018-06-20T00:48:14.697Z,82.76
2018-06-20T00:48:40.830Z,82.57
2018-06-20T00:49:07.019Z,82.48
2018-06-20T00:49:33.167Z,82.67
2018-06-20T00:49:59.297Z,82.86
2018-06-20T00:50:25.448Z,82.76
2018-06-20T00:50:51.604Z,82.96
2018-06-20T00:51:17.741Z,82.96
2018-06-20T00:51:43.882Z,82.76
2018-06-20T00:52:10.026Z,82.86
2018-06-20T00:52:36.183Z,82.86
2018-06-20T00:53:02.333Z,83.05
2018-06-20T00:53:28.474Z,82.96
2018-06-20T00:53:54.606Z,83.4
2018-06-20T00:54:20.773Z,83.11
2018-06-20T00:54:46.919Z,83.2
2018-06-20T00:55:13.084Z,83.15
2018-06-20T00:55:39.251Z,83.25
2018-06-20T00:56:05.391Z,83.53
2018-06-20T00:56:31.531Z,83.11
2018-06-20T00:56:57.674Z,82.92
2018-06-20T00:57:23.816Z,83.63
2018-06-20T00:57:49.954Z,83.69
2018-06-20T00:58:16.104Z,83.98
2018-06-20T00:58:42.241Z,83.78
2018-06-20T00:59:08.376Z,83.69
2018-06-20T00:59:34.519Z,83.88
2018-06-20T01:00:00.666Z,83.5
2018-06-20T01:00:26.800Z,83.4
2018-06-20T01:00:52.935Z,83.5
2018-06-20T01:01:19.081Z,83.5
2018-06-20T01:01:45.241Z,83.5
2018-06-20T01:02:11.388Z,83.78
2018-06-20T01:02:37.526Z,83.5
2018-06-20T01:03:03.664Z,83.69
2018-06-20T01:03:29.810Z,83.69
2018-06-20T01:03:55.945Z,83.44
2018-06-20T01:04:22.079Z,83.4
2018-06-20T01:04:48.225Z,83.4
2018-06-20T01:05:14.357Z,83.73
2018-06-20T01:05:40.500Z,83.4
2018-06-20T01:06:06.639Z,83.69
2018-06-20T01:06:32.788Z,83.83
2018-06-20T01:06:58.949Z,83.88
2018-06-20T01:07:25.095Z,83.83
2018-06-20T01:07:51.260Z,83.53
2018-06-20T01:08:17.402Z,83.63
2018-06-20T01:08:43.542Z,83.4
2018-06-20T01:09:09.710Z,83.44
2018-06-20T01:09:35.849Z,83.53
2018-06-20T01:10:02.027Z,83.44
2018-06-20T01:10:28.187Z,83.73
2018-06-20T01:10:54.329Z,83.53
2018-06-20T01:11:20.471Z,84.01
2018-06-20T01:11:46.807Z,83.83
2018-06-20T01:12:12.771Z,83.83
2018-06-20T01:12:38.910Z,83.83
2018-06-20T01:13:05.048Z,83.83
2018-06-20T01:13:31.189Z,83.92
2018-06-20T01:13:57.329Z,84.01
2018-06-20T01:14:23.470Z,83.73
2018-06-20T01:14:49.628Z,83.73
2018-06-20T01:15:15.797Z,83.73
2018-06-20T01:15:41.933Z,83.83
2018-06-20T01:16:08.076Z,83.92
2018-06-20T01:16:34.236Z,83.83
2018-06-20T01:17:00.382Z,83.73
2018-06-20T01:17:26.518Z,83.5
2018-06-20T01:17:52.666Z,84.07
2018-06-20T01:18:18.843Z,83.98
2018-06-20T01:18:44.982Z,83.98
2018-06-20T01:19:11.123Z,84.46
2018-06-20T01:19:37.267Z,83.88
2018-06-20T01:20:03.426Z,84.11
2018-06-20T01:20:29.570Z,84.36
2018-06-20T01:20:55.737Z,84.07
2018-06-20T01:21:21.895Z,83.88
2018-06-20T01:21:48.030Z,84.46
2018-06-20T01:22:14.174Z,84.41
2018-06-20T01:22:40.314Z,83.98
2018-06-20T01:23:06.453Z,84.36
2018-06-20T01:23:32.596Z,84.27
2018-06-20T01:23:58.738Z,84.46
2018-06-20T01:24:24.870Z,84.55
2018-06-20T01:24:51.014Z,84.89
2018-06-20T01:25:17.162Z,84.65
2018-06-20T01:25:43.300Z,84.84
2018-06-20T01:26:09.466Z,85.03
2018-06-20T01:26:35.609Z,84.65
2018-06-20T01:27:01.789Z,85.33
2018-06-20T01:27:27.930Z,85.33
2018-06-20T01:27:54.067Z,85.03
2018-06-20T01:28:20.210Z,85.52
2018-06-20T01:28:46.349Z,85.33
2018-06-20T01:29:12.481Z,85.33
2018-06-20T01:29:38.653Z,85.42
2018-06-20T01:30:04.791Z,85.33
2018-06-20T01:30:30.931Z,85.33
2018-06-20T01:30:57.092Z,85.23
2018-06-20T01:31:23.229Z,85.61
2018-06-20T01:31:49.396Z,85.52
2018-06-20T01:32:15.543Z,85.71
2018-06-20T01:32:41.680Z,85.71
2018-06-20T01:33:07.823Z,85.71
2018-06-20T01:33:33.959Z,85.71
2018-06-20T01:34:00.102Z,85.71
2018-06-20T01:34:26.249Z,85.71
2018-06-20T01:34:52.402Z,85.71
2018-06-20T01:35:18.542Z,85.61
2018-06-20T01:35:44.677Z,85.61
2018-06-20T01:36:10.817Z,85.52
2018-06-20T01:36:36.956Z,85.61
2018-06-20T01:37:03.095Z,86.19
2018-06-20T01:37:29.226Z,86.29
2018-06-20T01:37:55.371Z,86.1
2018-06-20T01:38:21.513Z,86.19
2018-06-20T01:38:47.648Z,86.19
2018-06-20T01:39:13.789Z,86.1
2018-06-20T01:39:39.948Z,85.71
2018-06-20T01:40:06.099Z,85.91
2018-06-20T01:40:32.227Z,85.91
2018-06-20T01:40:58.367Z,86.77
2018-06-20T01:41:24.511Z,86.58
2018-06-20T01:41:50.670Z,86.29
2018-06-20T01:42:16.820Z,86.29
2018-06-20T01:42:42.984Z,86.1
2018-06-20T01:43:09.125Z,86.39
2018-06-20T01:43:35.265Z,86.77
2018-06-20T01:44:01.423Z,86.77
2018-06-20T01:44:27.563Z,86.87
2018-06-20T01:44:53.703Z,86.29
2018-06-20T01:45:19.839Z,86.68
2018-06-20T01:45:45.978Z,86.96
2018-06-20T01:46:12.112Z,86.58
2018-06-20T01:46:38.256Z,86.77
2018-06-20T01:47:04.393Z,86.68
2018-06-20T01:47:30.534Z,86.77
2018-06-20T01:47:56.673Z,86.68
2018-06-20T01:48:22.814Z,86.77
2018-06-20T01:48:48.957Z,86.87
2018-06-20T01:49:15.094Z,86.96
2018-06-20T01:49:41.232Z,86.48
2018-06-20T01:50:07.367Z,86.77
2018-06-20T01:50:33.504Z,86.48
2018-06-20T01:50:59.650Z,86.19
2018-06-20T01:51:25.871Z,86.29
2018-06-20T01:51:52.000Z,86.1
2018-06-20T01:52:18.135Z,86.68
2018-06-20T01:52:44.278Z,86.48
2018-06-20T01:53:10.418Z,86.1
2018-06-20T01:53:36.577Z,86.29
2018-06-20T01:54:02.722Z,86.48
2018-06-20T01:54:28.934Z,86.29
2018-06-20T01:54:55.129Z,86.58
2018-06-20T01:55:21.308Z,85.71
2018-06-20T01:55:47.589Z,85.81
2018-06-20T01:56:13.670Z,86.58
2018-06-20T01:56:39.810Z,86.29
2018-06-20T01:57:05.956Z,86.96
2018-06-20T01:57:32.119Z,86.77
2018-06-20T01:57:58.257Z,86.68
2018-06-20T01:58:24.395Z,86.68
2018-06-20T01:58:50.561Z,86.58
2018-06-20T01:59:16.697Z,86.39
2018-06-20T01:59:42.845Z,86.29
2018-06-20T02:00:08.984Z,86.48
2018-06-20T02:00:35.126Z,86.48
2018-06-20T02:01:01.266Z,86.77
2018-06-20T02:01:27.407Z,87.06
2018-06-20T02:01:53.551Z,87.54
2018-06-20T02:02:19.719Z,87.35
2018-06-20T02:02:45.884Z,87.64
2018-06-20T02:03:12.016Z,87.4
2018-06-20T02:03:38.181Z,87.6
2018-06-20T02:04:04.315Z,87.74
2018-06-20T02:04:30.452Z,88.02
2018-06-20T02:04:56.638Z,87.7
2018-06-20T02:05:22.780Z,87.98
2018-06-20T02:05:48.970Z,88.31
2018-06-20T02:06:15.103Z,88.08
2018-06-20T02:06:41.244Z,88.37
2018-06-20T02:07:07.403Z,88.17
2018-06-20T02:07:33.554Z,88.27
2018-06-20T02:07:59.697Z,88.37
2018-06-20T02:08:25.836Z,88.37
2018-06-20T02:08:51.976Z,88.37
2018-06-20T02:09:18.115Z,87.88
2018-06-20T02:09:44.253Z,87.98
2018-06-20T02:10:10.412Z,87.93
2018-06-20T02:10:36.565Z,88.17
2018-06-20T02:11:02.705Z,88.46
2018-06-20T02:11:28.863Z,87.98
2018-06-20T02:11:55.001Z,87.88
2018-06-20T02:12:21.135Z,88.27
2018-06-20T02:12:47.278Z,87.98
2018-06-20T02:13:13.446Z,88.08
2018-06-20T02:13:39.584Z,88.46
2018-06-20T02:14:05.738Z,88.27
2018-06-20T02:14:31.857Z,88.22
2018-06-20T02:14:58.033Z,88.46
2018-06-20T02:15:24.170Z,88.37
2018-06-20T02:15:50.309Z,88.37
2018-06-20T02:16:16.459Z,88.27
2018-06-20T02:16:42.595Z,88.27
2018-06-20T02:17:08.737Z,88.37
2018-06-20T02:17:34.878Z,88.37
2018-06-20T02:18:01.039Z,88.37
2018-06-20T02:18:27.181Z,88.27
2018-06-20T02:18:53.322Z,88.56
2018-06-20T02:19:19.462Z,88.75
2018-06-20T02:19:45.601Z,88.85
2018-06-20T02:20:11.785Z,88.17
2018-06-20T02:20:37.916Z,88.37
2018-06-20T02:21:04.050Z,88.56
2018-06-20T02:21:30.221Z,89.04
2018-06-20T02:21:56.361Z,88.95
2018-06-20T02:22:22.506Z,88.95
2018-06-20T02:22:48.651Z,88.37
2018-06-20T02:23:14.806Z,88.27
2018-06-20T02:23:40.950Z,88.27
2018-06-20T02:24:07.109Z,89.14
2018-06-20T02:24:33.252Z,88.85
2018-06-20T02:24:59.395Z,88.17
2018-06-20T02:25:25.537Z,88.85
2018-06-20T02:25:51.674Z,88.75
2018-06-20T02:26:17.812Z,88.75
2018-06-20T02:26:43.952Z,89.33
2018-06-20T02:27:10.098Z,89.33
2018-06-20T02:27:36.231Z,89.43
2018-06-20T02:28:02.408Z,89.14
2018-06-20T02:28:28.543Z,89.04
2018-06-20T02:28:54.685Z,89.04
2018-06-20T02:29:20.824Z,89.62
2018-06-20T02:29:46.964Z,89.53
2018-06-20T02:30:13.113Z,89.72
2018-06-20T02:30:39.307Z,89.81
2018-06-20T02:31:05.489Z,89.43
2018-06-20T02:31:31.658Z,89.23
2018-06-20T02:31:57.814Z,89.53
2018-06-20T02:32:23.949Z,89.62
2018-06-20T02:32:50.120Z,89.43
2018-06-20T02:33:16.303Z,89.14
2018-06-20T02:33:42.508Z,89.23
2018-06-20T02:34:08.640Z,89.23
2018-06-20T02:34:34.822Z,88.85
2018-06-20T02:35:01.010Z,89.43
2018-06-20T02:35:27.171Z,89.23
2018-06-20T02:35:53.333Z,89.23
2018-06-20T02:36:19.504Z,89.04
2018-06-20T02:36:45.676Z,89.43
2018-06-20T02:37:11.806Z,89.33
2018-06-20T02:37:37.974Z,89.04
2018-06-20T02:38:04.137Z,88.65
2018-06-20T02:38:30.275Z,89.04
2018-06-20T02:38:56.438Z,89.04
2018-06-20T02:39:22.573Z,89.14
2018-06-20T02:39:48.759Z,88.37
2018-06-20T02:40:14.928Z,88.56
2018-06-20T02:40:41.088Z,88.75
2018-06-20T02:41:07.232Z,88.95
2018-06-20T02:41:33.419Z,89.04
2018-06-20T02:41:59.593Z,88.51
2018-06-20T02:42:25.726Z,88.37
2018-06-20T02:42:51.918Z,87.98
2018-06-20T02:43:18.099Z,88.37
2018-06-20T02:43:44.245Z,88.31
2018-06-20T02:44:10.430Z,88.08
2018-06-20T02:44:36.568Z,88.27
2018-06-20T02:45:02.709Z,88.08
2018-06-20T02:45:28.859Z,88.08
2018-06-20T02:45:54.998Z,88.46
2018-06-20T02:46:21.134Z,88.02
2018-06-20T02:46:47.278Z,87.98
2018-06-20T02:47:13.492Z,88.12
2018-06-20T02:47:39.636Z,88.08
2018-06-20T02:48:05.777Z,88.08
2018-06-20T02:48:31.930Z,88.17
2018-06-20T02:48:58.126Z,88.37
2018-06-20T02:49:24.268Z,88.22
2018-06-20T02:49:50.440Z,88.27
2018-06-20T02:50:16.600Z,87.93
2018-06-20T02:50:42.787Z,88.37
2018-06-20T02:51:08.943Z,88.27
2018-06-20T02:51:35.093Z,87.7
2018-06-20T02:52:01.260Z,88.46
2018-06-20T02:52:27.400Z,88.65
2018-06-20T02:52:53.589Z,88.65
2018-06-20T02:53:19.788Z,88.37
2018-06-20T02:53:45.926Z,88.27
2018-06-20T02:54:12.062Z,88.37
2018-06-20T02:54:38.277Z,88.46
2018-06-20T02:55:04.410Z,88.37
2018-06-20T02:55:30.581Z,88.27
2018-06-20T02:55:56.763Z,88.27
2018-06-20T02:56:22.921Z,88.37
2018-06-20T02:56:49.105Z,89.04
2018-06-20T02:57:15.270Z,88.85
2018-06-20T02:57:41.411Z,89.04
2018-06-20T02:58:07.614Z,88.85
2018-06-20T02:58:33.800Z,88.85
2018-06-20T02:58:59.965Z,88.85
2018-06-20T02:59:26.102Z,88.85
2018-06-20T02:59:52.245Z,89.53
2018-06-20T03:00:18.412Z,89.33
2018-06-20T03:00:44.622Z,89.23
2018-06-20T03:01:10.955Z,89.23
2018-06-20T03:01:37.231Z,89.04
2018-06-20T03:02:03.495Z,89.43
2018-06-20T03:02:29.845Z,88.95
2018-06-20T03:02:56.196Z,89.62
2018-06-20T03:03:22.455Z,89.72
2018-06-20T03:03:48.645Z,89.04
2018-06-20T03:04:14.856Z,89.62
2018-06-20T03:04:41.179Z,89.62
2018-06-20T03:05:07.382Z,89.72
2018-06-20T03:05:33.787Z,89.72
2018-06-20T03:06:00.031Z,89.62
2018-06-20T03:06:26.206Z,89.72
2018-06-20T03:06:52.371Z,90
2018-06-20T03:07:18.541Z,90
2018-06-20T03:07:44.682Z,89.33
2018-06-20T03:08:10.824Z,89.43
2018-06-20T03:08:36.977Z,89.62
2018-06-20T03:09:03.117Z,89.81
2018-06-20T03:09:29.254Z,89.62
2018-06-20T03:09:55.441Z,89.81
2018-06-20T03:10:21.583Z,89.43
2018-06-20T03:10:47.748Z,89.91
2018-06-20T03:11:13.915Z,90.25
2018-06-20T03:11:40.055Z,90.2
2018-06-20T03:12:06.229Z,90
2018-06-20T03:12:32.393Z,90
2018-06-20T03:12:58.560Z,89.96
2018-06-20T03:13:24.716Z,90
2018-06-20T03:13:50.858Z,90.1
2018-06-20T03:14:16.998Z,89.96
2018-06-20T03:14:43.170Z,89.96
2018-06-20T03:15:09.331Z,90.3
2018-06-20T03:15:35.476Z,90.3
2018-06-20T03:16:01.635Z,90.39
2018-06-20T03:16:27.852Z,90
2018-06-20T03:16:53.995Z,90.68
2018-06-20T03:17:20.147Z,89.96
2018-06-20T03:17:46.284Z,90
2018-06-20T03:18:12.455Z,90
2018-06-20T03:18:38.620Z,90.1
2018-06-20T03:19:04.803Z,89.91
2018-06-20T03:19:30.965Z,90
2018-06-20T03:19:57.140Z,90.2
2018-06-20T03:20:23.281Z,90.1
2018-06-20T03:20:49.442Z,90.1
2018-06-20T03:21:15.610Z,89.91
2018-06-20T03:21:41.750Z,90
2018-06-20T03:22:07.922Z,89.62
2018-06-20T03:22:34.051Z,89.53
2018-06-20T03:23:00.195Z,90
2018-06-20T03:23:26.339Z,89.72
2018-06-20T03:23:52.483Z,89.53
2018-06-20T03:24:18.618Z,89.53
2018-06-20T03:24:44.758Z,89.72
2018-06-20T03:25:10.897Z,89.81
2018-06-20T03:25:37.084Z,89.53
2018-06-20T03:26:03.218Z,89.72
2018-06-20T03:26:29.369Z,89.72
2018-06-20T03:26:55.502Z,89.72
2018-06-20T03:27:21.718Z,89.62
2018-06-20T03:27:47.841Z,90
2018-06-20T03:28:13.987Z,90
2018-06-20T03:28:40.129Z,89.91
2018-06-20T03:29:06.267Z,90.2
2018-06-20T03:29:32.407Z,89.91
2018-06-20T03:29:58.571Z,90.06
2018-06-20T03:30:24.736Z,89.43
2018-06-20T03:30:50.920Z,89.72
2018-06-20T03:31:17.157Z,89.86
2018-06-20T03:31:43.295Z,89.77
2018-06-20T03:32:09.487Z,90.1
2018-06-20T03:32:35.649Z,90.2
2018-06-20T03:33:01.792Z,90.2
2018-06-20T03:33:27.929Z,90.06
2018-06-20T03:33:54.104Z,90
2018-06-20T03:34:20.289Z,89.72
2018-06-20T03:34:46.434Z,89.53
2018-06-20T03:35:12.563Z,89.62
2018-06-20T03:35:38.711Z,89.81
2018-06-20T03:36:04.847Z,89.62
2018-06-20T03:36:30.991Z,89.04
2018-06-20T03:36:57.129Z,89.53
2018-06-20T03:37:23.271Z,89.53
2018-06-20T03:37:49.411Z,89.81
2018-06-20T03:38:15.549Z,89.33
2018-06-20T03:38:41.691Z,89.62
2018-06-20T03:39:07.860Z,89.04
2018-06-20T03:39:34.055Z,89.62
2018-06-20T03:40:00.194Z,89.04
2018-06-20T03:40:26.330Z,89.14
2018-06-20T03:40:52.476Z,89.04
2018-06-20T03:41:18.621Z,88.95
2018-06-20T03:41:44.785Z,88.95
2018-06-20T03:42:10.927Z,89.14
2018-06-20T03:42:37.111Z,89.33
2018-06-20T03:43:03.255Z,89.23
2018-06-20T03:43:29.392Z,89.23
2018-06-20T03:43:55.535Z,89.43
2018-06-20T03:44:21.675Z,88.95
2018-06-20T03:44:47.835Z,89.14
2018-06-20T03:45:13.971Z,89.33
2018-06-20T03:45:40.106Z,88.95
2018-06-20T03:46:06.247Z,88.95
2018-06-20T03:46:32.384Z,89.33
2018-06-20T03:46:58.546Z,88.65
2018-06-20T03:47:24.714Z,89.43
2018-06-20T03:47:50.857Z,88.85
2018-06-20T03:48:17.000Z,89.33
2018-06-20T03:48:43.184Z,89.04
2018-06-20T03:49:09.318Z,89.14
2018-06-20T03:49:35.460Z,89.23
2018-06-20T03:50:01.645Z,88.75
2018-06-20T03:50:27.792Z,89.23
2018-06-20T03:50:53.938Z,88.95
2018-06-20T03:51:20.100Z,88.46
2018-06-20T03:51:46.245Z,88.85
2018-06-20T03:52:12.404Z,88.95
2018-06-20T03:52:38.538Z,89.14
2018-06-20T03:53:04.704Z,89.04
2018-06-20T03:53:30.878Z,88.85
2018-06-20T03:53:57.032Z,88.85
2018-06-20T03:54:23.180Z,88.37
2018-06-20T03:54:49.317Z,88.75
2018-06-20T03:55:15.476Z,89.04
2018-06-20T03:55:41.642Z,89.04
2018-06-20T03:56:07.781Z,88.85
2018-06-20T03:56:33.920Z,89.04
2018-06-20T03:57:00.054Z,88.85
2018-06-20T03:57:26.197Z,89.04
2018-06-20T03:57:52.337Z,88.95
2018-06-20T03:58:18.498Z,89.04
2018-06-20T03:58:44.634Z,89.04
2018-06-20T03:59:10.785Z,88.75
2018-06-20T03:59:36.953Z,88.75
2018-06-20T04:00:03.121Z,88.65
2018-06-20T04:00:29.282Z,88.27
2018-06-20T04:00:55.424Z,88.65
2018-06-20T04:01:21.564Z,88.46
2018-06-20T04:01:47.704Z,88.37
2018-06-20T04:02:13.869Z,88.56
2018-06-20T04:02:40.013Z,88.65
2018-06-20T04:03:06.186Z,88.37
2018-06-20T04:03:32.323Z,88.75
2018-06-20T04:03:58.467Z,89.14
2018-06-20T04:04:24.602Z,88.75
2018-06-20T04:04:50.748Z,88.56
2018-06-20T04:05:16.888Z,88.85
2018-06-20T04:05:43.031Z,88.95
2018-06-20T04:06:09.194Z,88.27
2018-06-20T04:06:35.328Z,88.56
2018-06-20T04:07:01.470Z,89.04
2018-06-20T04:07:27.607Z,89.23
2018-06-20T04:07:53.749Z,88.27
2018-06-20T04:08:19.907Z,88.27
2018-06-20T04:08:46.046Z,88.85
2018-06-20T04:09:12.187Z,88.75
2018-06-20T04:09:38.352Z,88.75
2018-06-20T04:10:04.492Z,88.85
2018-06-20T04:10:30.633Z,88.65
2018-06-20T04:10:56.766Z,88.65
2018-06-20T04:11:22.915Z,88.75
2018-06-20T04:11:49.075Z,88.56
2018-06-20T04:12:15.209Z,88.17
2018-06-20T04:12:41.395Z,88.17
2018-06-20T04:13:07.498Z,88.27
2018-06-20T04:13:33.660Z,88.27
2018-06-20T04:13:59.798Z,88.56
2018-06-20T04:14:25.964Z,88.46
2018-06-20T04:14:52.105Z,88.85
2018-06-20T04:15:18.241Z,88.75
2018-06-20T04:15:44.402Z,88.37
2018-06-20T04:16:10.545Z,88.46
2018-06-20T04:16:36.685Z,88.46
2018-06-20T04:17:02.821Z,88.65
2018-06-20T04:17:28.957Z,88.08
2018-06-20T04:17:55.102Z,88.17
2018-06-20T04:18:21.338Z,88.17
2018-06-20T04:18:47.430Z,88.17
2018-06-20T04:19:13.596Z,87.98
2018-06-20T04:19:39.754Z,88.08
2018-06-20T04:20:05.898Z,88.46
2018-06-20T04:20:32.033Z,88.08
2018-06-20T04:20:58.172Z,88.08
2018-06-20T04:21:24.341Z,88.17
2018-06-20T04:21:50.500Z,88.08
2018-06-20T04:22:16.669Z,88.27
2018-06-20T04:22:42.825Z,88.65
2018-06-20T04:23:08.997Z,88.08
2018-06-20T04:23:35.155Z,88.46
2018-06-20T04:24:01.291Z,88.17
2018-06-20T04:24:27.433Z,87.98
2018-06-20T04:24:53.578Z,88.37
2018-06-20T04:25:19.714Z,88.17
2018-06-20T04:25:45.880Z,87.98
2018-06-20T04:26:12.040Z,88.27
2018-06-20T04:26:38.181Z,88.46
2018-06-20T04:27:04.316Z,88.08
2018-06-20T04:27:30.469Z,88.46
2018-06-20T04:27:56.657Z,88.37
2018-06-20T04:28:22.788Z,88.27
2018-06-20T04:28:48.931Z,88.46
2018-06-20T04:29:15.066Z,88.37
2018-06-20T04:29:41.207Z,88.37
2018-06-20T04:30:07.349Z,88.37
2018-06-20T04:30:33.493Z,87.88
2018-06-20T04:30:59.633Z,87.88
2018-06-20T04:31:25.771Z,88.17
2018-06-20T04:31:51.903Z,88.56
2018-06-20T04:32:18.105Z,88.08
2018-06-20T04:32:44.251Z,87.79
2018-06-20T04:33:10.406Z,87.79
2018-06-20T04:33:36.538Z,87.88
2018-06-20T04:34:02.673Z,87.5
2018-06-20T04:34:28.816Z,87.7
2018-06-20T04:34:55.041Z,87.7
2018-06-20T04:35:21.118Z,87.7
2018-06-20T04:35:47.255Z,87.79
2018-06-20T04:36:13.394Z,87.79
2018-06-20T04:36:39.551Z,87.98
2018-06-20T04:37:05.691Z,88.08
2018-06-20T04:37:31.831Z,87.7
2018-06-20T04:37:57.964Z,87.7
2018-06-20T04:38:24.103Z,87.7
2018-06-20T04:38:50.275Z,87.4
2018-06-20T04:39:16.411Z,87.6
2018-06-20T04:39:42.554Z,87.83
2018-06-20T04:40:08.687Z,87.4
2018-06-20T04:40:34.824Z,86.96
2018-06-20T04:41:01.020Z,87.16
2018-06-20T04:41:27.182Z,87.16
2018-06-20T04:41:53.329Z,87.45
2018-06-20T04:42:19.468Z,87.12
2018-06-20T04:42:45.606Z,86.96
2018-06-20T04:43:11.749Z,86.68
2018-06-20T04:43:37.914Z,86.68
2018-06-20T04:44:04.048Z,87.35
2018-06-20T04:44:30.225Z,86.39
2018-06-20T04:44:56.388Z,86.82
2018-06-20T04:45:22.537Z,86.58
2018-06-20T04:45:48.674Z,86.77
2018-06-20T04:46:14.841Z,86.68
2018-06-20T04:46:40.981Z,86.39
2018-06-20T04:47:07.128Z,86.48
2018-06-20T04:47:33.268Z,86.48
2018-06-20T04:47:59.405Z,86.77
2018-06-20T04:48:25.549Z,86.77
2018-06-20T04:48:51.687Z,86.68
2018-06-20T04:49:17.828Z,86.77
2018-06-20T04:49:43.993Z,86.77
2018-06-20T04:50:10.141Z,86.96
2018-06-20T04:50:36.282Z,86.48
2018-06-20T04:51:02.420Z,86.77
2018-06-20T04:51:28.554Z,86.77
2018-06-20T04:51:54.696Z,86.39
2018-06-20T04:52:20.840Z,86.19
2018-06-20T04:52:46.977Z,86.48
2018-06-20T04:53:13.155Z,86.19
2018-06-20T04:53:39.317Z,86.39
2018-06-20T04:54:05.480Z,86.19
2018-06-20T04:54:31.619Z,86.19
2018-06-20T04:54:57.763Z,86
2018-06-20T04:55:23.899Z,85.61
2018-06-20T04:55:50.042Z,85.61
2018-06-20T04:56:16.214Z,85.71
2018-06-20T04:56:42.346Z,85.71
2018-06-20T04:57:08.489Z,85.61
2018-06-20T04:57:34.633Z,85.61
2018-06-20T04:58:00.776Z,85.52
2018-06-20T04:58:26.910Z,85.46
2018-06-20T04:58:53.054Z,85.42
2018-06-20T04:59:19.190Z,85.75
2018-06-20T04:59:45.335Z,85.66
2018-06-20T05:00:11.489Z,84.55
2018-06-20T05:00:37.653Z,84.89
2018-06-20T05:01:03.793Z,85.17
2018-06-20T05:01:29.935Z,85.27
2018-06-20T05:01:56.073Z,85.37
2018-06-20T05:02:22.221Z,85.46
2018-06-20T05:02:48.389Z,84.89
2018-06-20T05:03:14.528Z,84.79
2018-06-20T05:03:40.671Z,84.79
2018-06-20T05:04:06.811Z,84.89
2018-06-20T05:04:32.977Z,84.89
2018-06-20T05:04:59.115Z,84.69
2018-06-20T05:05:25.256Z,84.79
2018-06-20T05:05:51.392Z,84.79
2018-06-20T05:06:17.536Z,84.79
2018-06-20T05:06:43.678Z,84.11
2018-06-20T05:07:09.841Z,84.5
2018-06-20T05:07:36.015Z,83.77
2018-06-20T05:08:02.173Z,83.29
2018-06-20T05:08:28.329Z,83.29
2018-06-20T05:08:54.486Z,83
2018-06-20T05:09:20.628Z,82.51
2018-06-20T05:09:46.770Z,82.81
2018-06-20T05:10:12.913Z,82.07
2018-06-20T05:10:39.065Z,81.93
2018-06-20T05:11:05.227Z,81.59
2018-06-20T05:11:31.370Z,81.49
2018-06-20T05:11:57.513Z,81.3
2018-06-20T05:12:23.649Z,81.59
2018-06-20T05:12:49.796Z,80.91
2018-06-20T05:13:15.939Z,81.15
2018-06-20T05:13:42.082Z,80.66
2018-06-20T05:14:08.225Z,79.7
2018-06-20T05:14:34.364Z,79.6
2018-06-20T05:15:00.514Z,79.22
2018-06-20T05:15:26.649Z,78.77
2018-06-20T05:15:52.810Z,78.29
2018-06-20T05:16:18.951Z,77.8
2018-06-20T05:16:45.096Z,77.61
2018-06-20T05:17:11.265Z,77.42
2018-06-20T05:17:37.373Z,77.71
2018-06-20T05:18:03.512Z,77.8
2018-06-20T05:18:29.657Z,77.22
2018-06-20T05:18:55.802Z,76.93
2018-06-20T05:19:21.963Z,77.03
2018-06-20T05:19:48.104Z,77.32
2018-06-20T05:20:14.238Z,77.03
2018-06-20T05:20:40.381Z,77.03
2018-06-20T05:21:06.546Z,77.13
2018-06-20T05:21:32.716Z,77.13
2018-06-20T05:21:58.852Z,77.32
2018-06-20T05:22:25.001Z,77.07
2018-06-20T05:22:51.143Z,76.87
2018-06-20T05:23:17.281Z,76.29
2018-06-20T05:23:43.421Z,76.49
2018-06-20T05:24:09.563Z,75.91
2018-06-20T05:24:35.708Z,75.81
2018-06-20T05:25:01.859Z,76.2
2018-06-20T05:25:27.998Z,75.23
2018-06-20T05:25:54.141Z,75.33
2018-06-20T05:26:20.276Z,75.52
2018-06-20T05:26:46.418Z,75.52
2018-06-20T05:27:12.562Z,75.43
2018-06-20T05:27:38.700Z,75.81
2018-06-20T05:28:04.838Z,75.71
2018-06-20T05:28:30.976Z,75.71
2018-06-20T05:28:57.143Z,75.91
2018-06-20T05:29:23.287Z,75.91
2018-06-20T05:29:49.426Z,75.81
2018-06-20T05:30:15.571Z,75.81
2018-06-20T05:30:41.710Z,75.62
2018-06-20T05:31:07.859Z,75.91
2018-06-20T05:31:34.018Z,76.01
2018-06-20T05:32:00.157Z,75.81
2018-06-20T05:32:26.295Z,75.52
2018-06-20T05:32:52.498Z,75.71
2018-06-20T05:33:18.583Z,75.33
2018-06-20T05:33:44.724Z,75.23
2018-06-20T05:34:10.883Z,75.33
2018-06-20T05:34:37.056Z,75.23
2018-06-20T05:35:03.224Z,75.52
2018-06-20T05:35:29.415Z,75.62
2018-06-20T05:35:55.583Z,75.33
2018-06-20T05:36:21.731Z,75.52
2018-06-20T05:36:47.863Z,75.43
2018-06-20T05:37:14.052Z,75.62
2018-06-20T05:37:40.186Z,76.01
2018-06-20T05:38:06.331Z,75.91
2018-06-20T05:38:32.467Z,75.71